KIDP

Independence Municipal Airport

Independence, Kansas, USA
METAR KIDP 201015Z AUTO 00000KT 10SM CLR M09/M12 A3035 RMK AO2 T10941123
Observed Flight Rules
Jan-20 @ 10:15 UTC (44 minutes ago) Visual Flight Rules
Visibility Clouds
10 miles
  • Clear skies
Temperatures Readings
Current -9°C / 16°F
Dewpoint -12°C / 10°F
Humidity 79%
Altimeter 30.35" Hg
Pressure 1027.82 hPa
Elevation 251
METAR KIDP 201015Z AUTO 00000KT 10SM CLR M09/M12 A3035 RMK AO2 T10941123
Observed Flight Rules
Jan-20 @ 10:15 UTC
(44 minutes ago)
VFR
Clouds
  • Clear skies
Temperature Dewpoint
-9°C / 16°F -12°C / 10°F
Humidity Altimeter Pressure
79% 30.35" Hg 1027.82 hPa